createdAt,value
2023-03-29T00:00:32.554Z,72.21
2023-03-29T00:03:35.352Z,72.23
2023-03-29T00:06:38.666Z,72.97
2023-03-29T00:09:42.554Z,72.63
2023-03-29T00:12:44.989Z,72.75
2023-03-29T00:15:47.728Z,72.91
2023-03-29T00:18:50.637Z,73.44
2023-03-29T00:21:53.389Z,73.97
2023-03-29T00:24:55.824Z,74.44
2023-03-29T00:27:58.490Z,73.53
2023-03-29T00:31:06.346Z,72.82
2023-03-29T00:34:09.125Z,73.20
2023-03-29T00:37:12.561Z,71.32
2023-03-29T00:40:15.707Z,70.86
2023-03-29T00:43:18.179Z,70.91
2023-03-29T00:46:21.340Z,70.74
2023-03-29T00:49:23.772Z,70.95
2023-03-29T00:52:30.389Z,69.47
2023-03-29T00:55:38.943Z,69.53
2023-03-29T00:58:49.657Z,69.93
2023-03-29T01:01:57.362Z,68.89
2023-03-29T01:05:10.101Z,69.49
2023-03-29T01:08:25.717Z,69.67
2023-03-29T01:11:36.336Z,69.75
2023-03-29T01:14:59.564Z,69.24
2023-03-29T01:18:02.458Z,70.00
2023-03-29T01:21:14.845Z,70.40
2023-03-29T01:24:26.419Z,71.14
2023-03-29T01:27:43.969Z,70.82
2023-03-29T01:30:54.531Z,71.27
2023-03-29T01:34:10.639Z,71.97
2023-03-29T01:37:17.808Z,72.76
2023-03-29T01:40:20.479Z,72.50
2023-03-29T01:43:23.203Z,71.91
2023-03-29T01:46:44.539Z,73.00
2023-03-29T01:50:09.285Z,73.58
2023-03-29T01:53:35.687Z,73.39
2023-03-29T01:56:42.503Z,73.77
2023-03-29T01:59:47.518Z,74.32
2023-03-29T02:02:53.497Z,74.98
2023-03-29T02:05:58.257Z,75.89
2023-03-29T02:09:04.051Z,76.10
2023-03-29T02:12:09.056Z,76.72
2023-03-29T02:15:15.289Z,76.95
2023-03-29T02:18:19.896Z,77.78
2023-03-29T02:21:31.672Z,77.24
2023-03-29T02:24:36.897Z,77.94
2023-03-29T02:27:39.970Z,78.59
2023-03-29T02:30:48.604Z,77.96
2023-03-29T02:34:01.349Z,77.58
2023-03-29T02:37:11.820Z,77.27
2023-03-29T02:40:16.089Z,76.76
2023-03-29T02:43:19.968Z,77.52
2023-03-29T02:46:24.043Z,77.54
2023-03-29T02:49:27.190Z,76.65
2023-03-29T02:52:37.257Z,76.70
2023-03-29T02:55:39.732Z,74.61
2023-03-29T02:58:42.448Z,73.34
2023-03-29T03:01:45.197Z,70.60
2023-03-29T03:04:48.343Z,67.06
2023-03-29T03:07:51.563Z,64.92
2023-03-29T03:10:54.289Z,64.21
2023-03-29T03:13:57.119Z,63.17
2023-03-29T03:17:00.700Z,61.61
2023-03-29T03:20:08.782Z,62.28
2023-03-29T03:23:12.127Z,62.16
2023-03-29T03:26:15.935Z,62.98
2023-03-29T03:29:19.101Z,62.67
2023-03-29T03:32:23.240Z,62.04
2023-03-29T03:35:27.245Z,62.73
2023-03-29T03:38:31.071Z,62.53
2023-03-29T03:41:35.019Z,62.26
2023-03-29T03:44:38.058Z,62.98
2023-03-29T03:47:41.355Z,62.04
2023-03-29T03:50:51.270Z,63.33
2023-03-29T03:53:54.291Z,61.98
2023-03-29T03:56:59.780Z,61.69
2023-03-29T04:00:13.830Z,60.40
2023-03-29T04:03:18.439Z,60.73
2023-03-29T04:06:20.859Z,59.35
2023-03-29T04:09:26.497Z,60.09
2023-03-29T04:12:29.865Z,59.73
2023-03-29T04:15:34.229Z,60.75
2023-03-29T04:18:38.759Z,61.15
2023-03-29T04:21:42.867Z,61.61
2023-03-29T04:24:45.835Z,62.18
2023-03-29T04:27:51.560Z,62.19
2023-03-29T04:30:56.910Z,61.43
2023-03-29T04:34:03.644Z,61.66
2023-03-29T04:37:10.651Z,61.70
2023-03-29T04:40:14.999Z,63.62
2023-03-29T04:43:18.441Z,60.98
2023-03-29T04:46:22.642Z,60.59
2023-03-29T04:49:26.345Z,59.92
2023-03-29T04:52:33.140Z,60.51
2023-03-29T04:55:35.870Z,60.26
2023-03-29T04:58:39.557Z,59.52
2023-03-29T05:01:42.542Z,60.42
2023-03-29T05:04:45.362Z,59.48
2023-03-29T05:07:48.195Z,57.69
2023-03-29T05:10:52.039Z,55.70
2023-03-29T05:13:57.258Z,53.72
2023-03-29T05:17:01.456Z,55.96
2023-03-29T05:20:11.234Z,56.56
2023-03-29T05:23:14.249Z,57.30
2023-03-29T05:26:22.387Z,59.11
2023-03-29T05:29:25.373Z,58.77
2023-03-29T05:32:28.959Z,58.51
2023-03-29T05:35:32.227Z,58.11
2023-03-29T05:38:35.924Z,57.78
2023-03-29T05:41:38.918Z,56.00
2023-03-29T05:44:44.084Z,55.38
2023-03-29T05:47:46.961Z,55.15
2023-03-29T05:50:50.664Z,54.22
2023-03-29T05:53:53.703Z,54.09
2023-03-29T05:56:56.452Z,53.89
2023-03-29T05:59:59.101Z,53.89
2023-03-29T06:03:10.082Z,53.09
2023-03-29T06:06:21.446Z,53.09
2023-03-29T06:09:24.018Z,51.72
2023-03-29T06:12:33.285Z,51.48
2023-03-29T06:15:37.115Z,50.34
2023-03-29T06:18:41.217Z,49.90
2023-03-29T06:21:43.652Z,48.91
2023-03-29T06:24:47.935Z,46.91
2023-03-29T06:27:52.145Z,48.36
2023-03-29T06:30:56.517Z,47.36
2023-03-29T06:34:01.737Z,46.30
2023-03-29T06:37:06.664Z,43.68
2023-03-29T06:40:10.250Z,42.62
2023-03-29T06:43:14.506Z,40.53
2023-03-29T06:46:17.972Z,40.17
2023-03-29T06:49:21.767Z,40.28
2023-03-29T06:52:25.276Z,37.21
2023-03-29T06:55:28.799Z,37.94
2023-03-29T06:58:31.450Z,40.39
2023-03-29T07:01:35.523Z,40.21
2023-03-29T07:04:38.863Z,38.71
2023-03-29T07:07:55.294Z,36.78
2023-03-29T07:10:59.639Z,36.65
2023-03-29T07:14:05.305Z,36.06
2023-03-29T07:17:07.903Z,35.52
2023-03-29T07:20:13.945Z,32.38
2023-03-29T07:23:18.089Z,32.06
2023-03-29T07:26:29.002Z,31.28
2023-03-29T07:29:33.145Z,29.69
2023-03-29T07:32:36.519Z,30.31
2023-03-29T07:35:43.502Z,28.18
2023-03-29T07:38:46.327Z,27.14
2023-03-29T07:41:49.453Z,27.31
2023-03-29T07:44:54.317Z,29.67
2023-03-29T07:47:58.905Z,29.56
2023-03-29T07:51:03.292Z,30.96
2023-03-29T07:54:06.767Z,31.50
2023-03-29T07:57:12.398Z,32.23
2023-03-29T08:00:16.507Z,32.75
2023-03-29T08:03:20.842Z,32.14
2023-03-29T08:06:26.613Z,32.88
2023-03-29T08:09:29.678Z,31.32
2023-03-29T08:12:32.560Z,32.62
2023-03-29T08:15:39.166Z,31.69
2023-03-29T08:18:42.647Z,33.70
2023-03-29T08:21:45.610Z,34.63
2023-03-29T08:24:49.316Z,33.28
2023-03-29T08:27:52.177Z,33.65
2023-03-29T08:30:57.284Z,33.08
2023-03-29T08:34:00.139Z,30.33
2023-03-29T08:37:05.150Z,28.39
2023-03-29T08:40:17.023Z,27.82
2023-03-29T08:43:58.080Z,26.19
2023-03-29T08:47:10.474Z,30.09
2023-03-29T08:50:14.817Z,34.66
2023-03-29T08:53:23.207Z,33.76
2023-03-29T08:56:31.464Z,33.76
2023-03-29T08:59:37.745Z,32.45
2023-03-29T09:02:43.757Z,30.35
2023-03-29T09:05:51.274Z,31.40
2023-03-29T09:08:54.981Z,30.70
2023-03-29T09:12:07.803Z,28.53
2023-03-29T09:15:24.500Z,29.69
2023-03-29T09:18:41.322Z,28.27
2023-03-29T09:22:10.622Z,31.51
2023-03-29T09:25:50.741Z,30.12
2023-03-29T09:29:15.520Z,30.04
2023-03-29T09:32:28.997Z,29.33
2023-03-29T09:35:39.284Z,29.66
2023-03-29T09:38:46.548Z,28.95
2023-03-29T09:41:58.839Z,27.36
2023-03-29T09:45:08.706Z,27.55
2023-03-29T09:48:17.587Z,28.70
2023-03-29T09:51:25.003Z,28.24
2023-03-29T09:54:27.886Z,27.62
2023-03-29T09:57:34.660Z,27.80
2023-03-29T10:00:37.799Z,26.42
2023-03-29T10:03:41.628Z,24.56
2023-03-29T10:06:50.589Z,25.77
2023-03-29T10:09:56.136Z,24.52
2023-03-29T10:13:06.093Z,22.69
2023-03-29T10:16:17.239Z,23.80
2023-03-29T10:19:28.196Z,25.21
2023-03-29T10:22:38.013Z,24.54
2023-03-29T10:25:42.593Z,24.17
2023-03-29T10:28:46.141Z,21.79
2023-03-29T10:31:49.398Z,18.83
2023-03-29T10:34:53.753Z,19.36
2023-03-29T10:37:59.328Z,20.81
2023-03-29T10:41:10.605Z,21.16
2023-03-29T10:44:31.589Z,18.86
2023-03-29T10:47:36.426Z,16.55
2023-03-29T10:50:39.122Z,17.42
2023-03-29T10:53:42.438Z,18.89
2023-03-29T10:56:53.863Z,17.72
2023-03-29T11:00:18.509Z,19.39
2023-03-29T11:03:51.958Z,16.62
2023-03-29T11:07:12.941Z,16.27
2023-03-29T11:10:28.464Z,16.20
2023-03-29T11:13:53.023Z,16.96
2023-03-29T11:17:01.493Z,18.76
2023-03-29T11:20:13.173Z,17.04
2023-03-29T11:23:35.454Z,15.76
2023-03-29T11:26:38.142Z,13.88
2023-03-29T11:30:06.475Z,14.89
2023-03-29T11:33:33.873Z,13.23
2023-03-29T11:36:51.729Z,15.92
2023-03-29T11:39:54.476Z,15.64
2023-03-29T11:43:00.611Z,12.98
2023-03-29T11:46:20.551Z,12.68
2023-03-29T11:49:43.905Z,13.07
2023-03-29T11:52:54.203Z,13.47
2023-03-29T11:56:03.064Z,12.96
2023-03-29T11:59:13.978Z,14.43
2023-03-29T12:02:25.293Z,15.06
2023-03-29T12:05:44.230Z,15.32
2023-03-29T12:08:56.115Z,14.70
2023-03-29T12:12:15.136Z,16.81
2023-03-29T12:15:21.544Z,17.13
2023-03-29T12:18:32.895Z,17.04
2023-03-29T12:21:36.721Z,18.45
2023-03-29T12:24:43.589Z,17.65
2023-03-29T12:28:08.985Z,16.82
2023-03-29T12:31:31.651Z,17.68
2023-03-29T12:34:42.113Z,16.89
2023-03-29T12:38:02.560Z,15.98
2023-03-29T12:41:19.864Z,16.17
2023-03-29T12:44:26.036Z,17.05
2023-03-29T12:47:39.794Z,14.78
2023-03-29T12:50:54.986Z,15.12
2023-03-29T12:54:21.219Z,16.70
2023-03-29T12:57:42.711Z,16.62
2023-03-29T13:00:45.639Z,18.66
2023-03-29T13:04:01.824Z,19.32
2023-03-29T13:07:05.950Z,20.17
2023-03-29T13:10:10.446Z,17.73
2023-03-29T13:13:21.092Z,18.48
2023-03-29T13:16:33.247Z,17.84
2023-03-29T13:19:41.492Z,18.31
2023-03-29T13:22:55.963Z,17.26
2023-03-29T13:26:17.558Z,16.43
2023-03-29T13:29:26.243Z,16.54
2023-03-29T13:32:49.216Z,16.52
2023-03-29T13:35:57.461Z,15.02
2023-03-29T13:39:05.452Z,14.49
2023-03-29T13:42:24.422Z,15.76
2023-03-29T13:45:29.636Z,17.54
2023-03-29T13:48:35.209Z,16.43
2023-03-29T13:51:42.102Z,17.79
2023-03-29T13:54:58.098Z,18.80
2023-03-29T13:58:45.345Z,19.89
2023-03-29T14:01:58.157Z,19.16
2023-03-29T14:05:04.275Z,19.62
2023-03-29T14:08:27.361Z,21.52
2023-03-29T14:11:31.254Z,21.25
2023-03-29T14:14:40.522Z,19.94
2023-03-29T14:18:00.267Z,18.19
2023-03-29T14:21:03.954Z,19.52
2023-03-29T14:24:12.912Z,18.31
2023-03-29T14:27:16.218Z,18.20
2023-03-29T14:30:22.580Z,17.49
2023-03-29T14:33:34.400Z,18.21
2023-03-29T14:36:38.503Z,17.44
2023-03-29T14:39:41.530Z,15.67
2023-03-29T14:42:45.185Z,15.92
2023-03-29T14:45:48.876Z,15.48
2023-03-29T14:48:52.297Z,16.35
2023-03-29T14:51:55.305Z,16.56
2023-03-29T14:55:02.029Z,17.62
2023-03-29T14:58:20.019Z,18.94
2023-03-29T15:01:25.847Z,20.09
2023-03-29T15:04:37.628Z,21.10
2023-03-29T15:07:43.459Z,22.14
2023-03-29T15:10:46.096Z,23.46
2023-03-29T15:13:51.068Z,23.55
2023-03-29T15:16:58.884Z,22.74
2023-03-29T15:20:12.325Z,23.62
2023-03-29T15:23:14.679Z,23.43
2023-03-29T15:26:23.415Z,24.57
2023-03-29T15:29:35.360Z,25.32
2023-03-29T15:32:38.870Z,25.46
2023-03-29T15:35:49.571Z,26.35
2023-03-29T15:38:52.312Z,26.05
2023-03-29T15:41:56.908Z,26.89
2023-03-29T15:44:59.678Z,26.84
2023-03-29T15:48:04.938Z,26.72
2023-03-29T15:51:09.304Z,27.27
2023-03-29T15:54:11.656Z,27.67
2023-03-29T15:57:16.216Z,28.48
2023-03-29T16:00:21.180Z,28.69
2023-03-29T16:03:24.745Z,29.31
2023-03-29T16:06:27.436Z,30.15
2023-03-29T16:09:30.812Z,31.75
2023-03-29T16:12:35.730Z,32.88
2023-03-29T16:15:38.486Z,33.64
2023-03-29T16:18:40.845Z,33.51
2023-03-29T16:21:44.981Z,33.97
2023-03-29T16:24:47.410Z,33.77
2023-03-29T16:27:51.257Z,34.71
2023-03-29T16:30:53.718Z,34.51
2023-03-29T16:33:56.677Z,34.61
2023-03-29T16:36:59.104Z,35.03
2023-03-29T16:40:01.809Z,35.92
2023-03-29T16:43:04.623Z,35.71
2023-03-29T16:46:09.312Z,36.28
2023-03-29T16:49:18.061Z,36.41
2023-03-29T16:52:21.328Z,39.00
2023-03-29T16:55:23.749Z,37.15
2023-03-29T16:58:27.270Z,36.82
2023-03-29T17:01:29.769Z,37.30
2023-03-29T17:04:32.506Z,36.72
2023-03-29T17:07:35.459Z,37.55
2023-03-29T17:10:40.807Z,38.27
2023-03-29T17:13:43.527Z,39.44
2023-03-29T17:16:46.512Z,40.64
2023-03-29T17:19:49.022Z,41.50
2023-03-29T17:22:53.966Z,42.10
2023-03-29T17:25:56.434Z,42.63
2023-03-29T17:28:59.649Z,44.52
2023-03-29T17:32:02.102Z,45.34
2023-03-29T17:35:05.057Z,44.33
2023-03-29T17:38:07.521Z,44.48
2023-03-29T17:41:10.293Z,44.93
2023-03-29T17:44:12.687Z,44.05
2023-03-29T17:47:15.479Z,44.14
2023-03-29T17:50:18.077Z,45.42
2023-03-29T17:53:21.580Z,44.70
2023-03-29T17:56:24.672Z,45.28
2023-03-29T17:59:27.284Z,45.19
2023-03-29T18:02:29.790Z,44.57
2023-03-29T18:05:33.654Z,43.32
2023-03-29T18:08:36.181Z,42.80
2023-03-29T18:11:39.207Z,42.99
2023-03-29T18:14:41.556Z,42.63
2023-03-29T18:17:44.741Z,43.08
2023-03-29T18:20:47.176Z,43.60
2023-03-29T18:23:52.849Z,43.13
2023-03-29T18:26:56.185Z,43.47
2023-03-29T18:30:00.040Z,43.41
2023-03-29T18:33:02.564Z,43.44
2023-03-29T18:36:10.872Z,43.79
2023-03-29T18:39:15.285Z,43.68
2023-03-29T18:42:17.978Z,43.87
2023-03-29T18:45:21.459Z,43.46
2023-03-29T18:48:24.444Z,43.49
2023-03-29T18:51:28.245Z,43.96
2023-03-29T18:54:31.106Z,43.92
2023-03-29T18:57:33.626Z,44.07
2023-03-29T19:00:37.604Z,44.11
2023-03-29T19:03:40.874Z,44.26
2023-03-29T19:06:43.662Z,44.75
2023-03-29T19:09:46.069Z,45.36
2023-03-29T19:12:49.001Z,45.36
2023-03-29T19:15:51.987Z,45.22
2023-03-29T19:18:54.973Z,46.00
2023-03-29T19:22:00.394Z,45.48
2023-03-29T19:25:04.923Z,45.96
2023-03-29T19:28:07.371Z,45.81
2023-03-29T19:31:11.341Z,46.24
2023-03-29T19:34:13.839Z,45.86
2023-03-29T19:37:17.657Z,46.21
2023-03-29T19:40:21.061Z,46.42
2023-03-29T19:43:24.942Z,46.71
2023-03-29T19:46:29.045Z,47.32
2023-03-29T19:49:33.961Z,47.01
2023-03-29T19:52:36.460Z,47.15
2023-03-29T19:55:39.622Z,47.44
2023-03-29T19:58:42.161Z,47.59
2023-03-29T20:01:50.989Z,47.55
2023-03-29T20:04:55.175Z,47.81
2023-03-29T20:07:57.570Z,47.90
2023-03-29T20:11:03.492Z,48.14
2023-03-29T20:14:06.312Z,47.96
2023-03-29T20:17:09.404Z,48.36
2023-03-29T20:20:13.999Z,48.29
2023-03-29T20:23:17.243Z,48.50
2023-03-29T20:26:19.627Z,48.15
2023-03-29T20:29:22.354Z,48.49
2023-03-29T20:32:24.709Z,48.90
2023-03-29T20:35:27.526Z,49.20
2023-03-29T20:38:30.152Z,49.43
2023-03-29T20:41:33.883Z,49.23
2023-03-29T20:44:36.675Z,49.69
2023-03-29T20:47:42.492Z,49.66
2023-03-29T20:50:48.386Z,50.09
2023-03-29T20:53:50.981Z,49.96
2023-03-29T20:56:54.905Z,50.14
2023-03-29T20:59:57.835Z,50.35
2023-03-29T21:03:00.751Z,50.26
2023-03-29T21:06:03.876Z,50.35
2023-03-29T21:09:06.294Z,50.55
2023-03-29T21:12:09.039Z,50.66
2023-03-29T21:15:13.463Z,50.07
2023-03-29T21:18:16.200Z,50.38
2023-03-29T21:21:18.668Z,50.85
2023-03-29T21:24:22.110Z,51.00
2023-03-29T21:27:24.558Z,51.87
2023-03-29T21:30:28.374Z,52.15
2023-03-29T21:33:32.637Z,52.42
2023-03-29T21:36:35.418Z,53.10
2023-03-29T21:39:37.973Z,53.59
2023-03-29T21:42:40.621Z,53.47
2023-03-29T21:45:42.993Z,53.55
2023-03-29T21:48:45.633Z,53.83
2023-03-29T21:51:48.077Z,54.11
2023-03-29T21:54:50.906Z,54.60
2023-03-29T21:57:53.355Z,54.28
2023-03-29T22:00:57.284Z,54.23
2023-03-29T22:03:59.973Z,54.17
2023-03-29T22:07:02.817Z,53.84
2023-03-29T22:10:11.722Z,53.81
2023-03-29T22:13:14.101Z,53.94
2023-03-29T22:16:18.270Z,53.81
2023-03-29T22:19:20.746Z,54.02
2023-03-29T22:22:24.508Z,53.58
2023-03-29T22:25:27.118Z,54.22
2023-03-29T22:28:29.727Z,54.45
2023-03-29T22:31:32.080Z,54.29
2023-03-29T22:34:34.723Z,54.91
2023-03-29T22:37:41.977Z,54.81
2023-03-29T22:40:44.672Z,55.31
2023-03-29T22:43:47.497Z,55.12
2023-03-29T22:46:50.492Z,55.27
2023-03-29T22:49:52.921Z,55.02
2023-03-29T22:52:56.038Z,54.60
2023-03-29T22:55:58.451Z,54.70
2023-03-29T22:59:01.252Z,54.52
2023-03-29T23:02:03.623Z,54.69
2023-03-29T23:05:07.039Z,55.06
2023-03-29T23:08:09.607Z,55.38
2023-03-29T23:11:12.373Z,55.77
2023-03-29T23:14:14.948Z,56.20
2023-03-29T23:17:19.243Z,56.48
2023-03-29T23:20:21.564Z,56.79
2023-03-29T23:23:25.719Z,57.09
2023-03-29T23:26:28.289Z,56.94
2023-03-29T23:29:31.001Z,57.55
2023-03-29T23:32:33.537Z,57.33
2023-03-29T23:35:37.677Z,57.57
2023-03-29T23:38:42.312Z,57.43
2023-03-29T23:41:45.076Z,57.68
2023-03-29T23:44:47.380Z,57.57
2023-03-29T23:47:49.984Z,58.01
2023-03-29T23:50:52.807Z,57.52
2023-03-29T23:53:56.494Z,57.96
2023-03-29T23:57:00.264Z,58.15
